createdAt,value
2019-02-15T00:02:21.242Z,99.90
2019-02-15T00:04:51.167Z,99.90
2019-02-15T00:07:21.038Z,99.90
2019-02-15T00:09:51.792Z,99.90
2019-02-15T00:12:22.677Z,99.90
2019-02-15T00:14:53.894Z,99.90
2019-02-15T00:17:44.488Z,99.90
2019-02-15T00:20:20.985Z,99.90
2019-02-15T00:22:50.824Z,99.90
2019-02-15T00:25:22.211Z,99.90
2019-02-15T00:27:53.690Z,99.90
2019-02-15T00:30:23.525Z,99.90
2019-02-15T00:32:53.624Z,99.90
2019-02-15T00:35:23.592Z,99.90
2019-02-15T00:37:53.386Z,99.90
2019-02-15T00:40:24.634Z,99.90
2019-02-15T00:42:54.700Z,99.90
2019-02-15T00:45:27.687Z,99.90
2019-02-15T00:48:08.709Z,99.90
2019-02-15T00:50:56.917Z,99.90
2019-02-15T00:53:36.373Z,99.90
2019-02-15T00:56:23.612Z,99.90
2019-02-15T00:59:06.083Z,99.90
2019-02-15T01:01:57.592Z,99.90
2019-02-15T01:07:46.892Z,99.90
2019-02-15T01:10:34.203Z,99.90
2019-02-15T01:13:31.183Z,99.90
2019-02-15T01:16:00.820Z,99.90
2019-02-15T01:18:30.618Z,99.90
2019-02-15T01:21:00.521Z,99.90
2019-02-15T01:23:30.849Z,99.90
2019-02-15T01:26:28.468Z,99.90
2019-02-15T01:29:06.295Z,99.90
2019-02-15T01:32:07.042Z,99.90
2019-02-15T01:35:02.232Z,99.90
2019-02-15T01:37:53.684Z,99.90
2019-02-15T01:40:41.419Z,99.90
2019-02-15T01:43:40.118Z,99.90
2019-02-15T01:46:15.699Z,99.90
2019-02-15T01:48:45.912Z,99.90
2019-02-15T01:51:15.684Z,99.90
2019-02-15T01:53:45.976Z,99.90
2019-02-15T01:56:15.808Z,99.90
2019-02-15T01:58:45.623Z,99.90
2019-02-15T02:01:21.349Z,99.90
2019-02-15T02:03:51.193Z,99.90
2019-02-15T02:06:21.153Z,99.90
2019-02-15T02:08:51.581Z,99.90
2019-02-15T02:11:21.377Z,99.90
2019-02-15T02:13:51.249Z,99.90
2019-02-15T02:16:21.763Z,99.90
2019-02-15T02:18:51.856Z,99.90
2019-02-15T02:21:21.631Z,99.90
2019-02-15T02:23:51.826Z,99.90
2019-02-15T02:26:21.970Z,99.90
2019-02-15T02:28:51.751Z,99.90
2019-02-15T02:31:21.833Z,99.90
2019-02-15T02:33:51.957Z,99.90
2019-02-15T02:36:21.774Z,99.90
2019-02-15T02:38:51.835Z,99.90
2019-02-15T02:41:22.022Z,99.90
2019-02-15T02:43:59.377Z,99.90
2019-02-15T02:46:24.404Z,99.90
2019-02-15T02:48:54.227Z,99.90
2019-02-15T02:51:24.043Z,99.90
2019-02-15T02:53:53.994Z,99.90
2019-02-15T02:56:24.221Z,99.90
2019-02-15T02:58:55.099Z,99.90
2019-02-15T03:01:25.638Z,99.90
2019-02-15T03:04:13.542Z,99.90
2019-02-15T03:06:43.442Z,99.90
2019-02-15T03:09:13.226Z,99.90
2019-02-15T03:11:43.045Z,99.90
2019-02-15T03:14:15.395Z,99.90
2019-02-15T03:16:45.774Z,99.90
2019-02-15T03:19:15.563Z,99.90
2019-02-15T03:21:45.892Z,99.90
2019-02-15T03:24:15.747Z,99.90
2019-02-15T03:26:45.902Z,99.90
2019-02-15T03:29:15.748Z,99.90
2019-02-15T03:31:45.566Z,99.90
2019-02-15T03:34:16.959Z,99.90
2019-02-15T03:37:14.536Z,99.90
2019-02-15T03:39:53.899Z,99.90
2019-02-15T03:42:24.184Z,99.90
2019-02-15T03:44:54.060Z,99.90
2019-02-15T03:47:27.086Z,99.90
2019-02-15T03:49:56.991Z,99.90
2019-02-15T03:52:26.789Z,99.90
2019-02-15T03:55:02.010Z,99.90
2019-02-15T03:57:31.827Z,99.90
2019-02-15T04:00:01.883Z,99.90
2019-02-15T04:02:31.654Z,99.90
2019-02-15T04:05:01.827Z,99.90
2019-02-15T04:07:31.703Z,99.90
2019-02-15T04:10:01.614Z,99.90
2019-02-15T04:12:32.393Z,99.90
2019-02-15T04:15:02.479Z,99.90
2019-02-15T04:17:32.455Z,99.90
2019-02-15T04:20:02.632Z,99.90
2019-02-15T04:22:32.427Z,99.90
2019-02-15T04:25:02.230Z,99.90
2019-02-15T04:27:32.364Z,99.90
2019-02-15T04:30:02.363Z,99.90
2019-02-15T04:32:32.318Z,99.90
2019-02-15T04:35:04.151Z,99.90
2019-02-15T04:37:33.959Z,99.90
2019-02-15T04:40:05.039Z,99.90
2019-02-15T04:42:34.849Z,99.90
2019-02-15T04:45:04.785Z,99.90
2019-02-15T04:47:35.169Z,99.90
2019-02-15T04:50:05.381Z,99.90
2019-02-15T04:52:35.171Z,99.90
2019-02-15T04:55:05.343Z,99.90
2019-02-15T04:57:35.776Z,99.90
2019-02-15T05:00:06.658Z,99.90
2019-02-15T05:02:36.542Z,99.90
2019-02-15T05:05:13.616Z,99.90
2019-02-15T05:07:43.500Z,99.90
2019-02-15T05:10:13.310Z,99.90
2019-02-15T05:12:43.202Z,99.90
2019-02-15T05:15:15.116Z,99.90
2019-02-15T05:17:48.432Z,99.90
2019-02-15T05:20:18.497Z,99.90
2019-02-15T05:22:48.282Z,99.90
2019-02-15T05:25:18.195Z,99.90
2019-02-15T05:27:48.541Z,99.90
2019-02-15T05:30:18.490Z,99.90
2019-02-15T05:32:48.415Z,99.90
2019-02-15T05:35:23.213Z,99.90
2019-02-15T05:37:53.092Z,99.90
2019-02-15T05:40:22.908Z,99.90
2019-02-15T05:42:53.286Z,99.90
2019-02-15T05:45:23.175Z,99.90
2019-02-15T05:47:52.998Z,99.90
2019-02-15T05:50:22.875Z,99.90
2019-02-15T05:52:53.026Z,99.90
2019-02-15T05:55:22.806Z,99.90
2019-02-15T05:57:53.088Z,99.90
2019-02-15T06:00:37.126Z,99.90
2019-02-15T06:03:03.086Z,99.90
2019-02-15T06:05:33.457Z,99.90
2019-02-15T06:08:07.509Z,99.90
2019-02-15T06:10:40.388Z,99.90
2019-02-15T06:13:10.959Z,99.90
2019-02-15T06:15:40.857Z,99.90
2019-02-15T06:18:10.701Z,99.90
2019-02-15T06:20:40.512Z,99.90
2019-02-15T06:23:11.663Z,99.90
2019-02-15T06:25:41.419Z,99.90
2019-02-15T06:28:11.967Z,99.90
2019-02-15T06:30:41.812Z,99.90
2019-02-15T06:33:12.272Z,99.90
2019-02-15T06:35:42.583Z,99.90
2019-02-15T06:38:12.431Z,99.90
2019-02-15T06:41:01.288Z,99.90
2019-02-15T06:43:31.377Z,99.90
2019-02-15T06:46:02.888Z,99.90
2019-02-15T06:48:39.131Z,99.90
2019-02-15T06:51:09.223Z,99.90
2019-02-15T06:53:40.079Z,99.90
2019-02-15T06:56:16.190Z,99.90
2019-02-15T06:59:01.898Z,99.90
2019-02-15T07:01:37.252Z,99.90
2019-02-15T07:04:18.231Z,99.90
2019-02-15T07:06:52.056Z,99.90
2019-02-15T07:09:22.018Z,99.90
2019-02-15T07:12:01.539Z,99.90
2019-02-15T07:14:31.605Z,99.90
2019-02-15T07:17:01.519Z,99.90
2019-02-15T07:19:31.517Z,99.90
2019-02-15T07:22:01.365Z,99.90
2019-02-15T07:24:31.266Z,99.90
2019-02-15T07:27:02.658Z,99.90
2019-02-15T07:29:32.659Z,99.90
2019-02-15T07:32:06.562Z,99.90
2019-02-15T07:34:39.203Z,99.90
2019-02-15T07:37:10.541Z,99.90
2019-02-15T07:39:40.390Z,99.90
2019-02-15T07:42:18.366Z,99.90
2019-02-15T07:44:57.166Z,99.90
2019-02-15T07:47:37.086Z,99.90
2019-02-15T07:50:09.339Z,99.90
2019-02-15T07:52:39.153Z,99.90
2019-02-15T07:55:09.182Z,99.90
2019-02-15T07:57:39.749Z,99.90
2019-02-15T08:00:12.522Z,99.90
2019-02-15T08:02:48.881Z,99.90
2019-02-15T08:05:20.465Z,99.90
2019-02-15T08:07:59.938Z,99.90
2019-02-15T08:10:29.551Z,99.90
2019-02-15T08:12:59.433Z,99.90
2019-02-15T08:15:40.306Z,99.90
2019-02-15T08:18:12.915Z,99.90
2019-02-15T08:20:42.934Z,99.90
2019-02-15T08:23:13.340Z,99.90
2019-02-15T08:25:46.114Z,99.90
2019-02-15T08:28:16.247Z,99.90
2019-02-15T08:30:47.046Z,99.90
2019-02-15T08:33:16.954Z,99.90
2019-02-15T08:35:46.866Z,99.90
2019-02-15T08:38:17.056Z,99.90
2019-02-15T08:40:53.223Z,99.90
2019-02-15T08:43:23.504Z,99.90
2019-02-15T08:46:00.506Z,99.90
2019-02-15T08:48:29.819Z,99.90
2019-02-15T08:51:02.033Z,99.90
2019-02-15T08:53:31.911Z,99.90
2019-02-15T08:56:04.850Z,99.90
2019-02-15T08:58:45.692Z,99.90
2019-02-15T09:01:15.702Z,99.90
2019-02-15T09:03:48.898Z,99.90
2019-02-15T09:06:22.830Z,99.90
2019-02-15T09:08:52.658Z,99.90
2019-02-15T09:11:27.380Z,99.90
2019-02-15T09:14:00.231Z,99.90
2019-02-15T09:16:30.394Z,99.90
2019-02-15T09:19:07.437Z,99.90
2019-02-15T09:21:37.487Z,99.90
2019-02-15T09:24:08.549Z,99.90
2019-02-15T09:26:38.461Z,99.90
2019-02-15T09:29:13.805Z,99.90
2019-02-15T09:31:43.560Z,99.90
2019-02-15T09:34:19.475Z,99.90
2019-02-15T09:36:54.441Z,99.90
2019-02-15T09:39:30.671Z,99.90
2019-02-15T09:42:00.459Z,99.90
2019-02-15T09:44:32.278Z,99.90
2019-02-15T09:47:03.146Z,99.90
2019-02-15T09:49:35.748Z,99.90
2019-02-15T09:52:05.643Z,99.90
2019-02-15T09:54:35.866Z,99.90
2019-02-15T09:57:06.102Z,99.90
2019-02-15T09:59:40.773Z,99.90
2019-02-15T10:02:10.641Z,99.90
2019-02-15T10:04:40.492Z,99.90
2019-02-15T10:07:16.493Z,99.90
2019-02-15T10:09:50.382Z,99.90
2019-02-15T10:12:21.892Z,99.90
2019-02-15T10:14:51.905Z,99.90
2019-02-15T10:17:22.223Z,99.90
2019-02-15T10:19:55.072Z,99.90
2019-02-15T10:22:25.381Z,99.90
2019-02-15T10:24:55.411Z,99.90
2019-02-15T10:27:26.171Z,99.90
2019-02-15T10:29:56.279Z,99.90
2019-02-15T10:32:26.385Z,99.90
2019-02-15T10:34:59.807Z,99.90
2019-02-15T10:37:29.601Z,99.90
2019-02-15T10:39:59.462Z,99.90
2019-02-15T10:42:29.774Z,99.90
2019-02-15T10:45:03.486Z,99.90
2019-02-15T10:47:33.510Z,99.90
2019-02-15T10:50:05.082Z,99.90
2019-02-15T10:52:36.305Z,99.90
2019-02-15T10:55:07.918Z,99.90
2019-02-15T10:57:38.642Z,99.90
2019-02-15T11:00:13.609Z,99.90
2019-02-15T11:02:43.452Z,99.90
2019-02-15T11:05:13.459Z,99.90
2019-02-15T11:07:43.362Z,99.90
2019-02-15T11:10:14.601Z,99.90
2019-02-15T11:12:44.583Z,99.90
2019-02-15T11:15:16.472Z,99.90
2019-02-15T11:17:46.423Z,99.90
2019-02-15T11:20:16.875Z,99.90
2019-02-15T11:22:49.256Z,99.90
2019-02-15T11:25:19.706Z,99.90
2019-02-15T11:27:51.686Z,99.90
2019-02-15T11:30:21.987Z,99.90
2019-02-15T11:32:52.221Z,99.90
2019-02-15T11:35:22.448Z,99.90
2019-02-15T11:37:52.526Z,99.90
2019-02-15T11:40:22.434Z,99.90
2019-02-15T11:42:52.315Z,99.90
2019-02-15T11:45:22.734Z,99.90
2019-02-15T11:48:00.437Z,99.90
2019-02-15T11:50:30.325Z,99.90
2019-02-15T11:53:00.157Z,99.90
2019-02-15T11:55:30.587Z,99.90
2019-02-15T11:58:00.495Z,99.90
2019-02-15T12:00:33.905Z,99.90
2019-02-15T12:03:05.054Z,99.90
2019-02-15T12:05:41.111Z,99.90
2019-02-15T12:08:11.036Z,99.90
2019-02-15T12:10:42.478Z,99.90
2019-02-15T12:13:12.355Z,99.90
2019-02-15T12:15:47.066Z,99.90
2019-02-15T12:18:16.811Z,99.90
2019-02-15T12:20:47.705Z,99.90
2019-02-15T12:23:18.146Z,99.90
2019-02-15T12:25:48.347Z,99.90
2019-02-15T12:28:18.490Z,99.90
2019-02-15T12:30:52.084Z,99.90
2019-02-15T12:33:22.211Z,99.90
2019-02-15T12:35:56.940Z,99.90
2019-02-15T12:38:30.579Z,99.90
2019-02-15T12:41:00.567Z,99.90
2019-02-15T12:43:30.980Z,99.90
2019-02-15T12:46:00.817Z,99.90
2019-02-15T12:48:30.913Z,99.90
2019-02-15T12:51:01.021Z,99.90
2019-02-15T12:53:31.237Z,99.90
2019-02-15T12:56:02.204Z,99.90
2019-02-15T12:58:32.521Z,99.90
2019-02-15T13:01:02.268Z,99.90
2019-02-15T13:03:32.360Z,99.90
2019-02-15T13:06:02.701Z,99.90
2019-02-15T13:08:32.748Z,99.90
2019-02-15T13:11:04.273Z,99.90
2019-02-15T13:13:48.073Z,99.90
2019-02-15T13:16:38.195Z,99.90
2019-02-15T13:19:08.088Z,99.90
2019-02-15T13:21:40.311Z,99.90
2019-02-15T13:24:10.225Z,99.90
2019-02-15T13:26:40.517Z,99.90
2019-02-15T13:29:14.205Z,99.90
2019-02-15T13:31:44.515Z,99.90
2019-02-15T13:34:17.438Z,99.90
2019-02-15T13:36:47.660Z,99.90
2019-02-15T13:39:22.575Z,99.90
2019-02-15T13:41:52.851Z,99.90
2019-02-15T13:44:30.455Z,99.90
2019-02-15T13:47:04.088Z,99.90
2019-02-15T13:49:37.130Z,99.90
2019-02-15T13:52:07.048Z,99.90
2019-02-15T13:54:47.101Z,99.90
2019-02-15T13:57:17.386Z,99.90
2019-02-15T13:59:53.342Z,99.90
2019-02-15T14:02:24.848Z,99.90
2019-02-15T14:04:56.642Z,99.50
2019-02-15T14:07:27.547Z,99.60
2019-02-15T14:10:04.561Z,98.60
2019-02-15T14:12:47.326Z,98.40
2019-02-15T14:15:42.832Z,98.50
2019-02-15T14:18:14.217Z,97.40
2019-02-15T14:20:44.618Z,95.30
2019-02-15T14:23:14.967Z,95.30
2019-02-15T14:25:44.958Z,94.00
2019-02-15T14:28:15.424Z,92.30
2019-02-15T14:30:50.975Z,91.30
2019-02-15T14:33:20.968Z,91.30
2019-02-15T14:35:54.287Z,90.50
2019-02-15T14:38:26.260Z,90.00
2019-02-15T14:40:59.777Z,90.00
2019-02-15T14:43:31.579Z,89.80
2019-02-15T14:46:01.478Z,89.80
2019-02-15T14:48:34.367Z,88.40
2019-02-15T14:51:06.388Z,84.80
2019-02-15T14:53:37.888Z,84.20
2019-02-15T14:56:13.184Z,84.50
2019-02-15T14:58:45.900Z,85.40
2019-02-15T15:01:16.551Z,85.10
2019-02-15T15:03:46.551Z,86.30
2019-02-15T15:06:16.567Z,83.60
2019-02-15T15:08:46.735Z,85.70
2019-02-15T15:11:18.831Z,86.40
2019-02-15T15:13:50.477Z,85.30
2019-02-15T15:16:20.657Z,86.50
2019-02-15T15:18:55.146Z,85.10
2019-02-15T15:21:25.232Z,85.90
2019-02-15T15:23:55.759Z,87.60
2019-02-15T15:26:26.560Z,86.50
2019-02-15T15:28:56.699Z,87.90
2019-02-15T15:31:26.581Z,86.10
2019-02-15T15:34:47.276Z,87.90
2019-02-15T15:37:20.069Z,87.40
2019-02-15T15:39:53.949Z,84.60
2019-02-15T15:42:29.579Z,82.50
2019-02-15T15:45:01.150Z,84.80
2019-02-15T15:47:33.545Z,85.80
2019-02-15T15:50:05.807Z,82.70
2019-02-15T15:52:36.043Z,86.00
2019-02-15T15:55:09.934Z,86.90
2019-02-15T15:57:42.813Z,86.20
2019-02-15T16:00:15.384Z,85.70
2019-02-15T16:03:14.396Z,88.50
2019-02-15T16:05:49.418Z,89.70
2019-02-15T16:08:20.828Z,89.00
2019-02-15T16:10:52.377Z,87.00
2019-02-15T16:13:22.536Z,88.90
2019-02-15T16:15:52.959Z,89.40
2019-02-15T16:18:34.593Z,90.00
2019-02-15T16:20:59.992Z,90.70
2019-02-15T16:24:12.161Z,90.10
2019-02-15T16:26:34.405Z,91.10
2019-02-15T16:29:08.035Z,93.20
2019-02-15T16:31:41.655Z,94.80
2019-02-15T16:34:52.156Z,95.70
2019-02-15T16:37:27.522Z,99.40
2019-02-15T16:39:57.463Z,99.30
2019-02-15T16:42:32.734Z,99.90
2019-02-15T16:45:15.376Z,99.90
2019-02-15T16:47:45.440Z,99.90
2019-02-15T16:50:15.674Z,99.90
2019-02-15T16:52:46.261Z,99.90
2019-02-15T16:55:26.987Z,99.90
2019-02-15T16:58:01.772Z,99.90
2019-02-15T17:00:34.998Z,99.90
2019-02-15T17:03:25.450Z,99.90
2019-02-15T17:05:55.437Z,99.90
2019-02-15T17:08:27.010Z,99.90
2019-02-15T17:10:58.644Z,99.90
2019-02-15T17:13:29.939Z,99.90
2019-02-15T17:16:10.793Z,99.90
2019-02-15T17:18:50.995Z,99.90
2019-02-15T17:21:15.975Z,99.90
2019-02-15T17:23:46.087Z,99.90
2019-02-15T17:26:23.804Z,99.90
2019-02-15T17:28:55.337Z,99.90
2019-02-15T17:31:27.240Z,99.90
2019-02-15T17:34:01.698Z,99.90
2019-02-15T17:36:31.899Z,99.90
2019-02-15T17:39:01.601Z,99.90
2019-02-15T17:41:34.147Z,99.90
2019-02-15T17:44:04.706Z,99.90
2019-02-15T17:46:46.220Z,99.90
2019-02-15T17:49:16.809Z,99.90
2019-02-15T17:51:48.345Z,99.90
2019-02-15T17:54:28.216Z,99.90
2019-02-15T17:57:03.251Z,99.90
2019-02-15T17:59:35.344Z,99.90
2019-02-15T18:02:08.656Z,99.90
2019-02-15T18:04:43.504Z,99.90
2019-02-15T18:07:15.318Z,99.90
2019-02-15T18:09:45.310Z,99.90
2019-02-15T18:12:16.871Z,99.90
2019-02-15T18:14:47.584Z,99.90
2019-02-15T18:17:18.066Z,99.90
2019-02-15T18:19:52.278Z,99.90
2019-02-15T18:22:24.752Z,99.90
2019-02-15T18:24:58.012Z,99.90
2019-02-15T18:27:35.429Z,99.90
2019-02-15T18:30:06.906Z,99.90
2019-02-15T18:32:42.896Z,99.90
2019-02-15T18:35:12.695Z,99.90
2019-02-15T18:37:48.165Z,99.90
2019-02-15T18:40:19.080Z,99.90
2019-02-15T18:42:55.207Z,99.90
2019-02-15T18:45:37.750Z,99.90
2019-02-15T18:48:12.368Z,99.90
2019-02-15T18:50:45.220Z,99.90
2019-02-15T18:53:16.011Z,99.90
2019-02-15T18:55:49.402Z,99.90
2019-02-15T18:58:22.701Z,99.90
2019-02-15T19:00:56.391Z,99.90
2019-02-15T19:03:29.425Z,99.90
2019-02-15T19:05:59.642Z,99.90
2019-02-15T19:08:33.622Z,99.90
2019-02-15T19:11:08.833Z,99.90
2019-02-15T19:13:39.042Z,99.90
2019-02-15T19:16:17.342Z,99.90
2019-02-15T19:18:49.241Z,99.90
2019-02-15T19:21:25.055Z,99.90
2019-02-15T19:24:12.325Z,99.90
2019-02-15T19:26:49.130Z,99.90
2019-02-15T19:29:22.005Z,99.90
2019-02-15T19:31:55.041Z,99.90
2019-02-15T19:34:40.461Z,99.90
2019-02-15T19:37:10.774Z,99.90
2019-02-15T19:40:09.631Z,99.90
2019-02-15T19:42:40.864Z,99.90
2019-02-15T19:45:38.658Z,99.90
2019-02-15T19:48:13.435Z,99.90
2019-02-15T19:50:47.206Z,99.90
2019-02-15T19:53:23.239Z,99.90
2019-02-15T19:55:53.419Z,99.90
2019-02-15T19:58:28.846Z,99.90
2019-02-15T20:01:01.097Z,99.90
2019-02-15T20:03:43.652Z,99.90
2019-02-15T20:06:16.160Z,99.90
2019-02-15T20:08:50.242Z,99.90
2019-02-15T20:11:35.936Z,99.90
2019-02-15T20:14:11.910Z,99.90
2019-02-15T20:16:45.256Z,99.90
2019-02-15T20:19:15.721Z,99.90
2019-02-15T20:21:51.699Z,99.90
2019-02-15T20:24:23.405Z,99.90
2019-02-15T20:27:12.620Z,99.90
2019-02-15T20:29:49.714Z,99.90
2019-02-15T20:32:30.796Z,99.90
2019-02-15T20:35:04.621Z,99.90
2019-02-15T20:37:42.173Z,99.90
2019-02-15T20:40:21.944Z,99.90
2019-02-15T20:42:59.120Z,99.90
2019-02-15T20:45:36.101Z,99.90
2019-02-15T20:48:11.849Z,99.90
2019-02-15T20:53:33.549Z,99.90
2019-02-15T20:56:05.159Z,99.90
2019-02-15T20:58:38.437Z,99.90
2019-02-15T21:01:11.466Z,99.90
2019-02-15T21:03:58.086Z,99.90
2019-02-15T21:09:13.712Z,99.90
2019-02-15T21:11:44.880Z,99.90
2019-02-15T21:14:22.898Z,99.90
2019-02-15T21:16:57.820Z,99.90
2019-02-15T21:19:44.109Z,99.90
2019-02-15T21:22:14.006Z,99.90
2019-02-15T21:24:56.124Z,99.90
2019-02-15T21:27:24.675Z,99.90
2019-02-15T21:29:56.176Z,99.90
2019-02-15T21:32:46.618Z,99.90
2019-02-15T21:35:24.460Z,99.90
2019-02-15T21:38:12.900Z,99.90
2019-02-15T21:40:53.277Z,99.90
2019-02-15T21:43:31.438Z,99.90
2019-02-15T21:46:05.115Z,99.90
2019-02-15T21:48:41.500Z,99.90
2019-02-15T21:51:13.823Z,99.90
2019-02-15T21:54:14.034Z,99.90
2019-02-15T21:57:01.821Z,99.90
2019-02-15T21:59:44.108Z,99.90
2019-02-15T22:02:15.295Z,99.90
2019-02-15T22:04:46.271Z,99.90
2019-02-15T22:07:19.727Z,99.90
2019-02-15T22:09:50.142Z,99.90
2019-02-15T22:12:23.267Z,99.90
2019-02-15T22:14:56.568Z,99.90
2019-02-15T22:17:33.267Z,99.90
2019-02-15T22:20:03.371Z,99.90
2019-02-15T22:22:36.538Z,99.90
2019-02-15T22:25:09.683Z,99.90
2019-02-15T22:27:39.955Z,99.90
2019-02-15T22:30:14.742Z,99.90
2019-02-15T22:32:49.744Z,99.90
2019-02-15T22:35:22.829Z,99.90
2019-02-15T22:37:57.539Z,99.90
2019-02-15T22:40:32.367Z,99.90
2019-02-15T22:43:29.954Z,99.90
2019-02-15T22:46:01.038Z,99.90
2019-02-15T22:48:31.646Z,99.90
2019-02-15T22:51:02.371Z,99.90
2019-02-15T22:53:32.896Z,99.90
2019-02-15T22:56:03.017Z,99.90
2019-02-15T22:58:33.581Z,99.90
2019-02-15T23:01:13.307Z,99.90
2019-02-15T23:03:53.423Z,99.90
2019-02-15T23:06:26.603Z,99.90
2019-02-15T23:09:01.456Z,99.90
2019-02-15T23:11:33.380Z,99.90
2019-02-15T23:14:19.118Z,99.90
2019-02-15T23:16:57.051Z,99.90
2019-02-15T23:19:28.480Z,99.90
2019-02-15T23:22:00.679Z,99.90
2019-02-15T23:24:30.380Z,99.90
2019-02-15T23:27:00.058Z,99.90
2019-02-15T23:29:30.660Z,99.90
2019-02-15T23:32:01.436Z,99.90
2019-02-15T23:34:45.093Z,99.90
2019-02-15T23:37:14.975Z,99.90
2019-02-15T23:39:46.884Z,99.90
2019-02-15T23:42:17.356Z,99.90
2019-02-15T23:44:47.401Z,99.90
2019-02-15T23:47:17.397Z,99.90
2019-02-15T23:50:10.096Z,99.90
2019-02-15T23:52:40.421Z,99.90
2019-02-15T23:55:10.438Z,99.90
2019-02-15T23:57:40.509Z,99.90
